Terminal Aerodrome Forecast
Issued by NWS Cleveland, OH

Home | Current Version | Previous Version | Text Only | Print | Product List | Glossary Off
Versions: 1 2 3 4 5 6 7 8 9 10 11 12 13 14 15 16

000
FTUS41 KCLE 210903 AAC
TAFTOL
TAF AMD
KTOL 210903Z 2109/2206 VRB02KT 5SM BR BKN050
      TEMPO 2110/2114 6SM BR SCT050
     FM211500 17006KT P6SM SCT050
     FM220000 11003KT P6SM FEW250=

USA.gov is the U.S. government's official web portal to all federal, state and local government web resources and services.